Latest Weather Observations for Wattamolla

IDN60801

Issued at 9:12 pm EST Wednesday 5 August 2020 (issued every 10 minutes, with the page automatically refreshed every 10 minutes)

About weather observations | Map of weather stations | Latest weather observations for NSW | Other Formats
Station Details ID: 066208 Name: WATTAMOLLA AWS Lat: -34.14 Lon: 151.12 Height: 44.0 m
Data from the previous 72 hours. | See also: Recent months at Wattamolla
Date/Time
EST
Temp
°C
App
Temp
°C
Dew
Point
°C
Rel
Hum
%
Delta-T
°C
Wind Press
QNH
hPa
Press
MSL
hPa
Rain since
9am
mm
Dir  Spd
km/h
Gust
km/h
Spd
kts
Gust
kts
05/09:00pm - - - - - WNW 28 46 15 25 - - -
05/08:59pm - - - - - WNW 28 46 15 25 - - -
05/08:30pm - - - - - W 28 43 15 23 - - -
05/08:00pm - - - - - W 19 32 10 17 - - -
05/07:30pm - - - - - S 9 13 5 7 - - -
05/07:00pm - - - - - WNW 11 13 6 7 - - -
05/06:30pm - - - - - WSW 13 15 7 8 - - -
05/06:00pm - - - - - W 13 26 7 14 - - -
05/05:30pm - - - - - W 11 19 6 10 - - -
05/05:00pm - - - - - WSW 11 17 6 9 - - -
05/04:30pm - - - - - WSW 15 32 8 17 - - -
05/04:00pm - - - - - SW 17 28 9 15 - - -
05/03:30pm - - - - - W 17 26 9 14 - - -
05/03:00pm - - - - - W 19 30 10 16 - - -
05/02:30pm - - - - - W 13 26 7 14 - - -
05/02:00pm - - - - - SW 13 24 7 13 - - -
05/01:30pm - - - - - WNW 19 32 10 17 - - -
05/01:00pm - - - - - W 22 33 12 18 - - -
05/12:30pm - - - - - WNW 19 37 10 20 - - -
05/12:00pm - - - - - W 24 37 13 20 - - -
05/11:30am - - - - - W 22 33 12 18 - - -
05/11:06am - - - - - W 28 48 15 26 - - -
05/11:00am - - - - - WNW 24 37 13 20 - - -
05/10:30am - - - - - WNW 15 26 8 14 - - -
05/10:00am - - - - - WNW 24 43 13 23 - - -
05/09:30am - - - - - NW 17 28 9 15 - - -
05/09:00am - - - - - WNW 17 30 9 16 - - -
05/08:30am - - - - - NW 13 28 7 15 - - -
05/08:00am - - - - - NNE 11 17 6 9 - - -
05/07:30am - - - - - NE 7 13 4 7 - - -
05/07:00am - - - - - NW 13 19 7 10 - - -
05/06:30am - - - - - NW 11 17 6 9 - - -
05/06:00am - - - - - WNW 28 37 15 20 - - -
05/05:30am - - - - - WNW 22 30 12 16 - - -
05/05:02am - - - - - W 30 48 16 26 - - -
05/05:00am - - - - - W 32 48 17 26 - - -
05/04:30am - - - - - WNW 33 48 18 26 - - -
05/04:06am - - - - - WNW 35 54 19 29 - - -
05/04:00am - - - - - WNW 37 54 20 29 - - -
05/03:30am - - - - - W 32 52 17 28 - - -
05/03:03am - - - - - WNW 28 48 15 26 - - -
05/03:00am - - - - - WNW 28 43 15 23 - - -
05/02:32am - - - - - WNW 28 46 15 25 - - -
05/02:30am - - - - - WNW 30 46 16 25 - - -
05/02:04am - - - - - WNW 28 48 15 26 - - -
05/02:00am - - - - - WNW 28 43 15 23 - - -
05/01:30am - - - - - WNW 24 39 13 21 - - -
05/01:00am - - - - - WNW 24 35 13 19 - - -
05/12:37am - - - - - WNW 28 46 15 25 - - -
05/12:30am - - - - - WNW 26 37 14 20 - - -
05/12:08am - - - - - WNW 30 50 16 27 - - -
05/12:00am - - - - - WNW 30 44 16 24 - - -
 
Date/Time
EST
Temp
°C
App
Temp
°C
Dew
Point
°C
Rel
Hum
%
Delta-T
°C
Wind Press
QNH
hPa
Press
MSL
hPa
Rain since
9am
mm
Dir  Spd
km/h
Gust
km/h
Spd
kts
Gust
kts
04/11:30pm - - - - - WNW 26 39 14 21 - - -
04/11:00pm - - - - - W 33 48 18 26 - - -
04/10:51pm - - - - - W 24 48 13 26 - - -
04/10:30pm - - - - - WSW 15 28 8 15 - - -
04/10:00pm - - - - - SW 19 30 10 16 - - -
04/09:30pm - - - - - SW 28 39 15 21 - - -
04/09:00pm - - - - - SSW 22 33 12 18 - - -
04/08:30pm - - - - - SW 26 41 14 22 - - -
04/08:00pm - - - - - WSW 26 39 14 21 - - -
04/07:30pm - - - - - SSW 26 39 14 21 - - -
04/07:00pm - - - - - WSW 22 32 12 17 - - -
04/06:30pm - - - - - W 19 24 10 13 - - -
04/06:00pm - - - - - WNW 20 30 11 16 - - -
04/05:30pm - - - - - W 17 26 9 14 - - -
04/05:00pm - - - - - W 20 32 11 17 - - -
04/04:30pm - - - - - W 15 20 8 11 - - -
04/04:00pm - - - - - WSW 17 26 9 14 - - -
04/03:30pm - - - - - WNW 11 15 6 8 - - -
04/03:00pm - - - - - NNW 11 15 6 8 - - -
04/02:30pm - - - - - NNW 11 15 6 8 - - -
04/02:00pm - - - - - NNW 15 24 8 13 - - -
04/01:30pm - - - - - NNW 15 28 8 15 - - -
04/01:00pm - - - - - N 15 24 8 13 - - -
04/12:30pm - - - - - NNW 17 26 9 14 - - -
04/12:00pm - - - - - N 17 28 9 15 - - -
04/11:30am - - - - - NNW 15 30 8 16 - - -
04/11:00am - - - - - N 19 28 10 15 - - -
04/10:30am - - - - - N 17 24 9 13 - - -
04/10:00am - - - - - NNW 15 26 8 14 - - -
04/09:30am - - - - - NNW 13 20 7 11 - - -
04/09:00am - - - - - NNW 13 19 7 10 - - -
04/08:30am - - - - - NNW 11 17 6 9 - - -
04/08:00am - - - - - NW 15 22 8 12 - - -
04/07:30am - - - - - NW 15 22 8 12 - - -
04/07:00am - - - - - N 9 13 5 7 - - -
04/06:30am - - - - - NNW 13 15 7 8 - - -
04/06:00am - - - - - NW 17 20 9 11 - - -
04/05:30am - - - - - NW 15 19 8 10 - - -
04/05:00am - - - - - NNW 6 11 3 6 - - -
04/04:30am - - - - - NW 20 26 11 14 - - -
04/04:00am - - - - - NW 17 20 9 11 - - -
04/03:30am - - - - - NW 13 19 7 10 - - -
04/03:00am - - - - - NW 28 30 15 16 - - -
04/02:30am - - - - - NW 22 26 12 14 - - -
04/02:00am - - - - - WNW 26 28 14 15 - - -
04/01:30am - - - - - WNW 26 28 14 15 - - -
04/01:00am - - - - - NW 22 26 12 14 - - -
04/12:30am - - - - - WNW 17 19 9 10 - - -
04/12:00am - - - - - NW 15 17 8 9 - - -
 
Date/Time
EST
Temp
°C
App
Temp
°C
Dew
Point
°C
Rel
Hum
%
Delta-T
°C
Wind Press
QNH
hPa
Press
MSL
hPa
Rain since
9am
mm
Dir  Spd
km/h
Gust
km/h
Spd
kts
Gust
kts
03/11:30pm - - - - - WNW 13 15 7 8 - - -
03/11:00pm - - - - - W 11 13 6 7 - - -
03/10:30pm - - - - - WSW 9 13 5 7 - - -
03/10:00pm - - - - - W 11 15 6 8 - - -
03/09:30pm - - - - - WSW 9 13 5 7 - - -
03/09:00pm - - - - - NNW 9 11 5 6 - - -
03/08:30pm - - - - - WNW 13 15 7 8 - - -
03/08:00pm - - - - - W 13 17 7 9 - - -
03/07:30pm - - - - - WSW 15 22 8 12 - - -
03/07:00pm - - - - - WNW 13 15 7 8 - - -
03/06:30pm - - - - - WSW 11 13 6 7 - - -
03/06:00pm - - - - - NNW 11 13 6 7 - - -
03/05:30pm - - - - - N 9 11 5 6 - - -
03/05:00pm - - - - - NNW 11 13 6 7 - - -
03/04:30pm - - - - - N 9 15 5 8 - - -
03/04:00pm - - - - - NNE 7 13 4 7 - - -
03/03:30pm - - - - - N 17 26 9 14 - - -
03/03:00pm - - - - - N 17 22 9 12 - - -
03/02:30pm - - - - - N 13 19 7 10 - - -
03/02:00pm - - - - - NNW 13 20 7 11 - - -
03/01:30pm - - - - - NNW 11 19 6 10 - - -
03/01:00pm - - - - - NNW 15 19 8 10 - - -
03/12:30pm - - - - - NW 17 26 9 14 - - -
03/12:00pm - - - - - NW 15 19 8 10 - - -
03/11:30am - - - - - NW 15 22 8 12 - - -
03/11:00am - - - - - NW 17 26 9 14 - - -
03/10:30am - - - - - WNW 17 26 9 14 - - -
03/10:00am - - - - - N 4 13 2 7 - - -
03/09:30am - - - - - NW 7 11 4 6 - - -
03/09:00am - - - - - NW 2 7 1 4 - - -
03/08:30am - - - - - SSW 4 9 2 5 - - -
03/08:00am - - - - - WNW 7 13 4 7 - - -
03/07:30am - - - - - CALM 0 7 0 4 - - -
03/07:00am - - - - - NW 9 13 5 7 - - -
03/06:30am - - - - - NW 15 19 8 10 - - -
03/06:00am - - - - - NNW 11 13 6 7 - - -
03/05:30am - - - - - NNW 11 13 6 7 - - -
03/05:00am - - - - - NW 11 13 6 7 - - -
03/04:30am - - - - - NNW 13 15 7 8 - - -
03/04:00am - - - - - NNW 9 11 5 6 - - -
03/03:30am - - - - - NW 15 17 8 9 - - -
03/03:00am - - - - - NW 15 19 8 10 - - -
03/02:30am - - - - - NW 15 17 8 9 - - -
03/02:00am - - - - - NW 15 15 8 8 - - -
03/01:30am - - - - - NW 15 17 8 9 - - -
03/01:00am - - - - - NW 17 17 9 9 - - -
03/12:30am - - - - - WNW 17 19 9 10 - - -
03/12:00am - - - - - NW 17 19 9 10 - - -
 
Date/Time
EST
Temp
°C
App
Temp
°C
Dew
Point
°C
Rel
Hum
%
Delta-T
°C
Wind Press
QNH
hPa
Press
MSL
hPa
Rain since
9am
mm
Dir  Spd
km/h
Gust
km/h
Spd
kts
Gust
kts
02/11:30pm - - - - - NW 19 19 10 10 - - -
02/11:00pm - - - - - NW 17 19 9 10 - - -
02/10:30pm - - - - - NW 15 15 8 8 - - -
02/10:00pm - - - - - NW 15 17 8 9 - - -
02/09:30pm - - - - - NW 13 15 7 8 - - -

Other formats

Comma delimited format used in spreadsheet applications
http://www.bom.gov.au/fwo/IDN60801/IDN60801.95752.axf

JavaScript Object Notation format (JSON) in row-major order
http://www.bom.gov.au/fwo/IDN60801/IDN60801.95752.json

Data quality

Most of these data are generated automatically and are frequently updated. Quality checks on data are not normally performed. It is possible for incorrect values to appear. Refer to information at About Latest Weather Observations and please check the disclaimer before using these data.